Puebla, Mexico

7:19 PM CDT on August 22, 2014 (GMT -0500)
Hermanos Serdan International | Change Station
CLOSE
Current Station
Airport
Location: Puebla,
Elevation: 7359 ft
Nearby Weather Stations

Elev 7359 ft 19.16 °N, 98.37 °W | Updated 33 minutes ago

Overcast
Overcast
63 °F
Feels Like 63 °F
N
8
Wind Variable Wind from SSE

Today
High -- | Low -- °F
--% Chance of Precip.
Yesterday
High -- | Low -- °F
Precip. -- in
7:16 AM 7:56 PM
Waning Crescent, 6% visible
Pressure 30.33 in
Visibility 10.0 miles
Clouds Few 3000 ft
Overcast 9000 ft
Dew Point 48 °F
Humidity 59%
Rainfall 0.00 in
Snow Depth Not available.
UV 0 out of 12
Pollen Not available.
Air Quality Not available.
Flu Activity Not available.
METAR MMPB 222346Z 16007KT 10SM FEW030CB OVC090 17/09 A3033 RMK 8/33/ BINOVC

More Conditions Fewer Conditions

Pressure 30.33 in
Visibility 10.0 miles
Clouds Few 3000 ft
Overcast 9000 ft
Dew Point 48 °F
Humidity 59%
Rainfall 0.00 in
Snow Depth Not available.
UV 0 out of 12
Pollen Not available.
Air Quality Not available.
Flu Activity Not available.
METAR MMPB 222346Z 16007KT 10SM FEW030CB OVC090 17/09 A3033 RMK 8/33/ BINOVC

More Conditions Fewer Conditions

10-Day Weather Forecast

Almanac

Astronomy

Aug. 22, 2014 Rise Set
Actual Time 7:16 AM CDT 7:56 PM CDT
Civil Twilight 6:53 AM CDT 8:18 PM CDT
Nautical Twilight 6:27 AM CDT 8:44 PM CDT
Astronomical Twilight 6:00 AM CDT 9:11 PM CDT
Moon 4:50 AM CDT (8/22) 5:58 PM CDT (8/22)
Length of Visible Light 13h 24m
Length of Day
12h 39m
Tomorrow will be 0m 59s shorter.
Waning Crescent, 6% of the Moon is Illuminated
Today
Waning Crescent
Aug 25
New
Sep 2
First Quarter
Sep 8
Full
Sep 15
Last Quarter

Today's Extremes

Country Highs Country Lows

Community

WunderPhotos

Upload Photos

1,746,317 photos uploaded!

WunderBlogs® & News

By Dr. Jeff Masters
Director of Meteorology, Weather Underground
By Kari Strenfel
Meteorologist, Weather Underground
By Christopher C. Burt
Weather Historian, Weather Underground
August 22, 2014
August 22, 2014
August 22, 2014

Nearby

Snow Depth

Not available.

Earthquake Activity

City Distance Mag. Time & Date
No recent earthquake activity has been reported nearby.
Minimum magnitude displayed is 2.5.

Coastal Water Temperatures

Place Temperature
No Stations Reporting

Nearby Weather Stations